KFYJ

Middle Peninsula Regional Airport

West Point, Virginia, USA
METAR KFYJ 231055Z AUTO 23005KT 10SM CLR 22/20 A2998 RMK AO1 T02160200
Observed Flight Rules
May-23 @ 10:55 UTC (18 minutes ago) Visual Flight Rules
Wind Visibility Clouds
230° at 5 knots 10 miles
  • Clear skies
Temperatures Readings
Current 22°C / 72°F
Dewpoint 20°C / 68°F
Humidity 88%
Altimeter 29.98" Hg
Pressure 1015 hPa
Elevation 7
METAR KFYJ 231055Z AUTO 23005KT 10SM CLR 22/20 A2998 RMK AO1 T02160200
Observed Flight Rules
May-23 @ 10:55 UTC
(18 minutes ago)
VFR
Wind Visibility
230° at 5 knots 10 miles
Clouds
  • Clear skies
Temperature Dewpoint
22°C / 72°F 20°C / 68°F
Humidity Altimeter Pressure
88% 29.98" Hg 1015 hPa